KLSE/LSE METAR and TAF weather

Enter ICAO airport designator
Station Type Date Time Source
KLSE METAR 2021/05/13 04:53 UTC NOAA

KLSE 130453Z AUTO 13004KT 10SM CLR 10/02 A3038 RMK AO2 SLP286 T01000022


Station Type Date Time Source
KLSE Decoded METAR 2021/05/13 04:53 UTC NOAA

LA CROSSE MUNICIPAL AIRPORT , WI, United States (KLSE) 43-53N 091-15W 200M
May 13, 2021 - 12:53 AM EDT / 2021.05.13 0453 UTC
Wind: from the SE (130 degrees) at 5 MPH (4 KT):0
Visibility: 10 mile(s):0
Sky conditions: clear
Temperature: 50.0 F (10.0 C)
Dew Point: 36.0 F (2.2 C)
Relative Humidity: 58%
Pressure (altimeter): 30.38 in. Hg (1028 hPa)
ob: KLSE 130453Z AUTO 13004KT 10SM CLR 10/02 A3038 RMK AO2 SLP286 T01000022
cycle: 5

Station Type Date Time Source
KLSE TAF 2021/05/13 06:22 UTC NOAA

TAF KLSE 130520Z 1306/1406 15005KT P6SM SKC
FM131300 21007KT P6SM SCT080
FM140000 17005KT P6SM BKN080

Example: see airport list